Lennox, California
Current Conditions -  °F | °C
As of 6:53 PM on Wednesday 22 Oct 2014 (Local Time) from KHHR Reporting Station
Clear Clear  
Wind Chill: 71°   Ceiling: Unl
Heat Index: 71°   Visibility: 10mi
Dew Point: 63°   Wind: 6mph
Humidity: 75%   Direction: 290°WNW
Pressure: 29.92"   Gusts: NA
Location:  33.94°N, 118.35°W
Report Text: KHHR 230153Z 29005KT 10SM CLR 22/17 A2992 RMK AO2 SLP129 T02170172
Loading
Personal Weather Stations






























Interactive Weather Map New forecast layout! Learn more

10-Day Weather Forecast

Advertisements
Track Severe Weather on mobile